Time;durP1;ratioP1;P1;durP2;ratioP2;P2;SDS_P1;SDS_P2;PMS_P1;PMS_P2;Temp;Humidity;BMP_temperature;BMP_pressure;BME280_temperature;BME280_humidity;BME280_pressure;Samples;Min_cycle;Max_cycle;Signal;HPM_P1;HPM_P2
2024/01/18 00:00:35;;;;;;;75.47;27.30;;;;;;;;;;5049838;28;20396;-66
2024/01/18 00:03:01;;;;;;;70.90;26.53;;;;;;;;;;5050870;28;20025;-67
2024/01/18 00:05:27;;;;;;;78.07;26.47;;;;;;;;;;5049861;28;20043;-68
2024/01/18 00:07:53;;;;;;;70.30;26.23;;;;;;;;;;5045595;28;20029;-67
2024/01/18 00:10:23;;;;;;;83.53;29.57;;;;;;;;;;5031158;28;20033;-66
2024/01/18 00:12:48;;;;;;;73.53;28.93;;;;;;;;;;5029459;28;20049;-70
2024/01/18 00:15:14;;;;;;;71.30;27.23;;;;;;;;;;5029385;28;20068;-67
2024/01/18 00:17:40;;;;;;;81.80;30.90;;;;;;;;;;5029216;28;20029;-67
2024/01/18 00:20:06;;;;;;;80.77;30.27;;;;;;;;;;5034325;28;20075;-68
2024/01/18 00:22:31;;;;;;;73.43;29.90;;;;;;;;;;5049743;28;20021;-66
2024/01/18 00:24:57;;;;;;;74.63;29.27;;;;;;;;;;5051022;28;20473;-68
2024/01/18 00:27:22;;;;;;;95.63;34.57;;;;;;;;;;5051268;28;20342;-68
2024/01/18 00:29:48;;;;;;;80.10;30.27;;;;;;;;;;5050507;28;20037;-68
2024/01/18 00:32:14;;;;;;;91.73;31.03;;;;;;;;;;5043792;28;20107;-67
2024/01/18 00:34:39;;;;;;;88.77;33.03;;;;;;;;;;5031533;28;20489;-67
2024/01/18 00:37:05;;;;;;;95.20;33.30;;;;;;;;;;5031299;28;20371;-67
2024/01/18 00:39:31;;;;;;;86.23;32.00;;;;;;;;;;5031340;28;20025;-69
2024/01/18 00:41:56;;;;;;;77.10;29.63;;;;;;;;;;5033466;28;20442;-65
2024/01/18 00:44:22;;;;;;;83.27;30.70;;;;;;;;;;5044093;28;20021;-66
2024/01/18 00:46:47;;;;;;;77.93;27.83;;;;;;;;;;5051242;28;20025;-67
2024/01/18 00:49:14;;;;;;;77.07;28.20;;;;;;;;;;5042341;28;20036;-66
2024/01/18 00:51:40;;;;;;;72.97;27.90;;;;;;;;;;5033356;28;20159;-67
2024/01/18 00:54:07;;;;;;;90.07;32.13;;;;;;;;;;5028798;28;20540;-67
2024/01/18 00:56:32;;;;;;;82.47;26.77;;;;;;;;;;5029526;28;20406;-66
2024/01/18 00:58:58;;;;;;;69.40;26.17;;;;;;;;;;5030450;28;20059;-66
2024/01/18 01:01:24;;;;;;;77.10;26.63;;;;;;;;;;5030497;28;20108;-68
2024/01/18 01:03:49;;;;;;;79.60;26.53;;;;;;;;;;5028776;28;20021;-66
2024/01/18 01:06:15;;;;;;;79.87;27.77;;;;;;;;;;5028935;28;20324;-67
2024/01/18 01:08:41;;;;;;;76.57;27.23;;;;;;;;;;5044681;28;20033;-68
2024/01/18 01:11:10;;;;;;;75.33;27.73;;;;;;;;;;5050016;28;20473;-66
2024/01/18 01:13:35;;;;;;;74.93;26.60;;;;;;;;;;5050372;28;20025;-68
2024/01/18 01:16:01;;;;;;;74.03;27.00;;;;;;;;;;5048899;28;20025;-66
2024/01/18 01:18:26;;;;;;;73.87;26.37;;;;;;;;;;5040680;28;20041;-67
2024/01/18 01:20:52;;;;;;;75.27;26.27;;;;;;;;;;5028674;28;20048;-66
2024/01/18 01:23:18;;;;;;;75.57;25.73;;;;;;;;;;5028831;28;20022;-66
2024/01/18 01:25:43;;;;;;;70.00;25.67;;;;;;;;;;5028895;28;20374;-68
2024/01/18 01:28:09;;;;;;;71.77;25.60;;;;;;;;;;5032301;28;20152;-67
2024/01/18 01:30:34;;;;;;;64.93;23.40;;;;;;;;;;5034384;28;20437;-68
2024/01/18 01:33:00;;;;;;;64.17;25.37;;;;;;;;;;5049555;28;20083;-67
2024/01/18 01:35:26;;;;;;;75.33;26.97;;;;;;;;;;5054412;28;20024;-68
2024/01/18 01:37:51;;;;;;;75.10;24.40;;;;;;;;;;5052857;28;20103;-67
2024/01/18 01:40:18;;;;;;;66.53;24.83;;;;;;;;;;5053865;28;20059;-68
2024/01/18 01:42:43;;;;;;;68.53;25.70;;;;;;;;;;5038864;28;20098;-67
2024/01/18 01:45:09;;;;;;;66.70;24.43;;;;;;;;;;5054553;28;20458;-66
2024/01/18 01:47:35;;;;;;;62.60;23.80;;;;;;;;;;5054503;28;20534;-69
2024/01/18 01:50:01;;;;;;;70.33;26.23;;;;;;;;;;5053593;28;20021;-66
2024/01/18 01:52:29;;;;;;;75.87;24.07;;;;;;;;;;5049055;28;20446;-68
2024/01/18 01:54:56;;;;;;;68.83;22.67;;;;;;;;;;5032257;28;20241;-69
2024/01/18 01:57:22;;;;;;;72.93;25.13;;;;;;;;;;5047146;28;20065;-67
2024/01/18 01:59:48;;;;;;;64.80;23.47;;;;;;;;;;5051210;28;20044;-68
2024/01/18 02:02:14;;;;;;;80.00;24.93;;;;;;;;;;5032978;28;20017;-67
2024/01/18 02:04:40;;;;;;;69.13;25.40;;;;;;;;;;5037669;28;20043;-68
2024/01/18 02:07:08;;;;;;;66.43;24.70;;;;;;;;;;5054016;28;20033;-70
2024/01/18 02:09:33;;;;;;;73.13;27.27;;;;;;;;;;5053790;28;20443;-69
2024/01/18 02:12:01;;;;;;;70.37;24.10;;;;;;;;;;5052207;28;20025;-68
2024/01/18 02:14:28;;;;;;;71.60;23.70;;;;;;;;;;5053086;28;20024;-69
2024/01/18 02:16:53;;;;;;;77.93;26.57;;;;;;;;;;5045903;28;20025;-68
2024/01/18 02:19:19;;;;;;;69.70;25.33;;;;;;;;;;5032744;28;20083;-69
2024/01/18 02:21:45;;;;;;;74.73;25.90;;;;;;;;;;5032143;28;20036;-69
2024/01/18 02:24:16;;;;;;;66.80;24.43;;;;;;;;;;5033396;28;20014;-67
2024/01/18 02:26:42;;;;;;;63.45;23.20;;;;;;;;;;5032370;28;20033;-67
2024/01/18 02:29:08;;;;;;;67.97;25.03;;;;;;;;;;5041589;28;20086;-66
2024/01/18 02:31:33;;;;;;;62.53;24.23;;;;;;;;;;5036964;28;20096;-67
2024/01/18 02:33:59;;;;;;;61.13;24.63;;;;;;;;;;5052986;28;20028;-68
2024/01/18 02:36:25;;;;;;;65.13;24.53;;;;;;;;;;5052000;28;20029;-68
2024/01/18 02:38:52;;;;;;;61.70;23.40;;;;;;;;;;5050551;28;20427;-67
2024/01/18 02:41:18;;;;;;;62.90;26.17;;;;;;;;;;5040594;28;20030;-67
2024/01/18 02:43:43;;;;;;;70.73;24.70;;;;;;;;;;5032626;28;20017;-68
2024/01/18 02:46:09;;;;;;;63.47;24.40;;;;;;;;;;5031504;28;20037;-67
2024/01/18 02:48:35;;;;;;;56.83;22.20;;;;;;;;;;5030974;28;20119;-69
2024/01/18 02:51:01;;;;;;;76.10;24.47;;;;;;;;;;5031195;28;20046;-67
2024/01/18 02:53:27;;;;;;;61.73;22.67;;;;;;;;;;5031751;28;20423;-68
2024/01/18 02:55:52;;;;;;;63.63;22.53;;;;;;;;;;5014756;28;20049;-67
2024/01/18 02:58:18;;;;;;;68.23;24.43;;;;;;;;;;5031559;28;20036;-69
2024/01/18 03:00:44;;;;;;;62.23;23.43;;;;;;;;;;5031046;28;20061;-69
2024/01/18 03:03:09;;;;;;;60.07;22.57;;;;;;;;;;5033153;28;20079;-68
2024/01/18 03:05:35;;;;;;;61.30;23.70;;;;;;;;;;5032248;28;20033;-68
2024/01/18 03:08:00;;;;;;;64.20;22.33;;;;;;;;;;5033596;28;20036;-66
2024/01/18 03:10:26;;;;;;;57.03;23.40;;;;;;;;;;5033692;28;20328;-70
2024/01/18 03:12:52;;;;;;;64.00;24.07;;;;;;;;;;5033940;28;20100;-67
2024/01/18 03:15:18;;;;;;;58.33;22.93;;;;;;;;;;5034493;28;20029;-68
2024/01/18 03:17:44;;;;;;;54.80;21.13;;;;;;;;;;5031198;28;20030;-69
2024/01/18 03:20:10;;;;;;;59.53;23.57;;;;;;;;;;5031010;28;20026;-67
2024/01/18 03:22:40;;;;;;;62.00;23.60;;;;;;;;;;5031139;28;20052;-68
2024/01/18 03:25:06;;;;;;;67.37;25.07;;;;;;;;;;5014207;28;20485;-68
2024/01/18 03:27:31;;;;;;;72.40;24.50;;;;;;;;;;5031360;28;20033;-69
2024/01/18 03:29:57;;;;;;;75.87;26.43;;;;;;;;;;5032096;28;20037;-66
2024/01/18 03:32:23;;;;;;;58.83;23.37;;;;;;;;;;5032332;28;20029;-67
2024/01/18 03:34:49;;;;;;;62.60;24.03;;;;;;;;;;5031941;28;20024;-70
2024/01/18 03:37:14;;;;;;;75.23;24.33;;;;;;;;;;5031948;28;20084;-68
2024/01/18 03:39:40;;;;;;;65.37;23.17;;;;;;;;;;5031664;28;20033;-67
2024/01/18 03:42:05;;;;;;;62.47;24.87;;;;;;;;;;5032324;28;20036;-67
2024/01/18 03:44:34;;;;;;;63.03;23.63;;;;;;;;;;5030290;28;20064;-67
2024/01/18 03:47:00;;;;;;;62.50;23.37;;;;;;;;;;5030058;28;20022;-68
2024/01/18 03:49:26;;;;;;;69.33;25.13;;;;;;;;;;5030144;28;20064;-68
2024/01/18 03:51:52;;;;;;;71.10;27.10;;;;;;;;;;5029990;28;20359;-68
2024/01/18 03:54:18;;;;;;;72.80;26.20;;;;;;;;;;5031778;28;20088;-65
2024/01/18 03:56:44;;;;;;;78.67;27.17;;;;;;;;;;5030338;28;20144;-68
2024/01/18 03:59:15;;;;;;;78.90;24.27;;;;;;;;;;5029919;28;20481;-68
2024/01/18 04:01:41;;;;;;;76.68;27.08;;;;;;;;;;5031522;28;20543;-69
2024/01/18 04:04:08;;;;;;;66.30;24.03;;;;;;;;;;5031461;28;20124;-67
2024/01/18 04:06:33;;;;;;;73.53;24.80;;;;;;;;;;5040082;28;20378;-69
2024/01/18 04:08:59;;;;;;;80.17;29.20;;;;;;;;;;5051089;28;20059;-68
2024/01/18 04:11:24;;;;;;;78.33;27.13;;;;;;;;;;5051005;28;20029;-66
2024/01/18 04:13:50;;;;;;;73.30;25.10;;;;;;;;;;5050836;28;20028;-67
2024/01/18 04:16:16;;;;;;;70.50;25.63;;;;;;;;;;5050816;28;20032;-66
2024/01/18 04:18:42;;;;;;;77.70;25.67;;;;;;;;;;5041265;28;20029;-67
2024/01/18 04:21:07;;;;;;;70.93;24.97;;;;;;;;;;5029730;28;20516;-67
2024/01/18 04:23:33;;;;;;;65.73;25.47;;;;;;;;;;5029705;28;20048;-67
2024/01/18 04:25:59;;;;;;;75.43;24.57;;;;;;;;;;5028706;28;20040;-66
2024/01/18 04:28:24;;;;;;;76.73;23.47;;;;;;;;;;5030763;28;20501;-67
2024/01/18 04:30:50;;;;;;;70.10;26.00;;;;;;;;;;5043168;28;20043;-67
2024/01/18 04:33:18;;;;;;;68.60;27.10;;;;;;;;;;5050818;28;20063;-69
2024/01/18 04:35:44;;;;;;;73.17;24.63;;;;;;;;;;5049193;28;20086;-66
2024/01/18 04:38:10;;;;;;;62.10;24.57;;;;;;;;;;5050552;28;20420;-68
2024/01/18 04:40:35;;;;;;;70.77;24.00;;;;;;;;;;5047763;28;20512;-67
2024/01/18 04:43:01;;;;;;;56.77;22.77;;;;;;;;;;5044746;28;20036;-67
2024/01/18 04:45:26;;;;;;;64.10;23.90;;;;;;;;;;5049374;28;20037;-68
2024/01/18 04:47:53;;;;;;;58.00;19.80;;;;;;;;;;5052525;28;20417;-67
2024/01/18 04:50:24;;;;;;;53.30;21.60;;;;;;;;;;5052305;28;20025;-68
2024/01/18 04:52:50;;;;;;;56.15;21.02;;;;;;;;;;5051590;28;20476;-67
2024/01/18 04:55:16;;;;;;;39.97;18.03;;;;;;;;;;5050495;28;20037;-68
2024/01/18 04:57:42;;;;;;;41.87;18.43;;;;;;;;;;5051011;28;20183;-67
2024/01/18 05:00:10;;;;;;;44.17;18.27;;;;;;;;;;5050984;28;20029;-67
2024/01/18 05:02:39;;;;;;;43.90;17.87;;;;;;;;;;5050090;28;20044;-69
2024/01/18 05:05:08;;;;;;;39.47;18.27;;;;;;;;;;5045411;28;20033;-66
2024/01/18 05:07:34;;;;;;;41.73;17.40;;;;;;;;;;5036224;28;20473;-68
2024/01/18 05:10:00;;;;;;;36.90;17.63;;;;;;;;;;5028951;28;20022;-68
2024/01/18 05:12:25;;;;;;;46.47;17.60;;;;;;;;;;5029116;28;20120;-68
2024/01/18 05:14:51;;;;;;;42.17;18.87;;;;;;;;;;5030540;28;20025;-68
2024/01/18 05:17:16;;;;;;;41.20;18.67;;;;;;;;;;5030537;28;20061;-68
2024/01/18 05:19:43;;;;;;;45.37;18.17;;;;;;;;;;5029017;28;20429;-68
2024/01/18 05:22:10;;;;;;;39.03;16.47;;;;;;;;;;5028341;28;20028;-67
2024/01/18 05:24:35;;;;;;;42.53;16.37;;;;;;;;;;5029038;28;20029;-67
2024/01/18 05:27:01;;;;;;;42.20;17.03;;;;;;;;;;5031131;28;20124;-68
2024/01/18 05:29:27;;;;;;;33.80;15.27;;;;;;;;;;5029180;28;20455;-69
2024/01/18 05:31:52;;;;;;;43.13;18.23;;;;;;;;;;5028710;28;20121;-67
2024/01/18 05:34:18;;;;;;;36.33;16.40;;;;;;;;;;5029493;28;20022;-68
2024/01/18 05:36:45;;;;;;;42.77;16.83;;;;;;;;;;5028811;28;20026;-67
2024/01/18 05:39:11;;;;;;;38.93;17.07;;;;;;;;;;5030289;28;20033;-69
2024/01/18 05:41:36;;;;;;;40.37;16.27;;;;;;;;;;5029415;28;20477;-68
2024/01/18 05:44:02;;;;;;;37.97;15.90;;;;;;;;;;5029646;28;20092;-67
2024/01/18 05:46:28;;;;;;;40.07;16.57;;;;;;;;;;5029002;28;20128;-68
2024/01/18 05:48:55;;;;;;;40.77;17.07;;;;;;;;;;5029025;28;20036;-68
2024/01/18 05:51:20;;;;;;;40.33;17.50;;;;;;;;;;5011899;28;20052;-68
2024/01/18 05:53:46;;;;;;;42.47;17.03;;;;;;;;;;5030031;28;20658;-68
2024/01/18 05:56:11;;;;;;;40.87;16.63;;;;;;;;;;5045652;28;20512;-67
2024/01/18 05:58:37;;;;;;;39.57;15.77;;;;;;;;;;5048784;28;20400;-67
2024/01/18 06:01:03;;;;;;;40.83;18.17;;;;;;;;;;5049816;28;20040;-67
2024/01/18 06:03:28;;;;;;;39.67;17.10;;;;;;;;;;5050080;28;20460;-71
2024/01/18 06:05:55;;;;;;;37.97;16.80;;;;;;;;;;5028240;28;20025;-68
2024/01/18 06:08:20;;;;;;;34.30;15.47;;;;;;;;;;5008543;28;20034;-68
2024/01/18 06:10:46;;;;;;;39.97;16.70;;;;;;;;;;5021902;28;20087;-71
2024/01/18 06:13:12;;;;;;;40.50;17.60;;;;;;;;;;5026686;28;20512;-69
2024/01/18 06:15:39;;;;;;;36.17;15.40;;;;;;;;;;5024411;28;20392;-67
2024/01/18 06:18:05;;;;;;;41.87;17.23;;;;;;;;;;5034620;28;20036;-67
2024/01/18 06:20:31;;;;;;;44.70;18.47;;;;;;;;;;5039543;28;20013;-68
2024/01/18 06:23:00;;;;;;;40.63;16.67;;;;;;;;;;5047281;28;20559;-67
2024/01/18 06:25:26;;;;;;;41.27;18.67;;;;;;;;;;5029537;28;20508;-70
2024/01/18 06:27:51;;;;;;;40.77;17.33;;;;;;;;;;5034549;28;20025;-67
2024/01/18 06:30:18;;;;;;;41.67;17.83;;;;;;;;;;5041835;28;20029;-66
2024/01/18 06:32:44;;;;;;;42.40;18.57;;;;;;;;;;5024692;28;20021;-70
2024/01/18 06:35:12;;;;;;;33.63;14.93;;;;;;;;;;5019238;28;20057;-67
2024/01/18 06:37:38;;;;;;;33.40;16.80;;;;;;;;;;5027901;28;20029;-68
2024/01/18 06:40:04;;;;;;;28.70;16.07;;;;;;;;;;5024185;28;20107;-67
2024/01/18 06:42:31;;;;;;;32.83;15.50;;;;;;;;;;5038552;28;20057;-69
2024/01/18 06:44:57;;;;;;;33.40;16.10;;;;;;;;;;5020178;28;20120;-69
2024/01/18 06:47:23;;;;;;;29.77;13.97;;;;;;;;;;5048812;28;20544;-69
2024/01/18 06:49:48;;;;;;;36.67;17.33;;;;;;;;;;5022691;28;20478;-69
2024/01/18 06:52:14;;;;;;;33.27;15.60;;;;;;;;;;5027411;28;20496;-67
2024/01/18 06:54:43;;;;;;;36.17;15.93;;;;;;;;;;5029127;28;20037;-66
2024/01/18 06:57:09;;;;;;;36.87;16.23;;;;;;;;;;5034137;28;20695;-67
2024/01/18 06:59:35;;;;;;;38.67;16.67;;;;;;;;;;5022276;28;20040;-67
2024/01/18 07:02:02;;;;;;;39.90;16.07;;;;;;;;;;5025923;28;20023;-68
2024/01/18 07:04:28;;;;;;;38.73;16.37;;;;;;;;;;5025271;28;20038;-67
2024/01/18 07:06:54;;;;;;;44.63;18.07;;;;;;;;;;5025315;28;20520;-68
2024/01/18 07:09:19;;;;;;;33.33;16.33;;;;;;;;;;5017650;28;20056;-68
2024/01/18 07:11:46;;;;;;;33.00;15.33;;;;;;;;;;5018894;28;20025;-68
2024/01/18 07:14:11;;;;;;;31.30;16.00;;;;;;;;;;5019451;28;20118;-69
2024/01/18 07:16:37;;;;;;;36.27;16.57;;;;;;;;;;5032036;28;20124;-69
2024/01/18 07:19:03;;;;;;;34.37;15.83;;;;;;;;;;5026753;28;20802;-68
2024/01/18 07:21:28;;;;;;;33.10;14.97;;;;;;;;;;5012566;28;20029;-69
2024/01/18 07:23:54;;;;;;;38.60;15.53;;;;;;;;;;5024791;28;20098;-72
2024/01/18 07:26:19;;;;;;;32.50;13.63;;;;;;;;;;5017147;28;20045;-70
2024/01/18 07:28:48;;;;;;;37.73;15.73;;;;;;;;;;5025691;28;20037;-72
2024/01/18 07:31:14;;;;;;;35.63;15.10;;;;;;;;;;5018527;28;20033;-70
2024/01/18 07:33:40;;;;;;;52.13;15.07;;;;;;;;;;5019748;28;20576;-70
2024/01/18 07:36:06;;;;;;;71.17;16.43;;;;;;;;;;5025136;28;20038;-69
2024/01/18 07:38:31;;;;;;;57.17;15.87;;;;;;;;;;5022797;28;20034;-69
2024/01/18 07:40:58;;;;;;;38.00;12.90;;;;;;;;;;5023177;28;20065;-68
2024/01/18 07:43:24;;;;;;;41.43;14.40;;;;;;;;;;5023543;28;20604;-67
2024/01/18 07:45:50;;;;;;;36.80;13.33;;;;;;;;;;5013590;28;20074;-69
2024/01/18 07:48:17;;;;;;;29.50;13.70;;;;;;;;;;5024523;28;20037;-70
2024/01/18 07:50:43;;;;;;;28.90;13.30;;;;;;;;;;5007491;28;20461;-73
2024/01/18 07:53:10;;;;;;;27.87;11.97;;;;;;;;;;5009131;28;20092;-72
2024/01/18 07:55:36;;;;;;;33.87;12.80;;;;;;;;;;5006735;28;20118;-69
2024/01/18 07:58:02;;;;;;;41.50;13.80;;;;;;;;;;5017242;28;20120;-69
2024/01/18 08:00:27;;;;;;;38.93;14.33;;;;;;;;;;5016956;28;20029;-69
2024/01/18 08:02:54;;;;;;;55.93;13.20;;;;;;;;;;5008024;28;20025;-70
2024/01/18 08:05:21;;;;;;;47.80;13.17;;;;;;;;;;5015872;28;20438;-71
2024/01/18 08:07:50;;;;;;;59.80;13.03;;;;;;;;;;5011537;28;20667;-69
2024/01/18 08:10:40;;;;;;;31.27;11.60;;;;;;;;;;5015262;28;20053;-71
2024/01/18 08:13:17;;;;;;;22.90;11.43;;;;;;;;;;5014716;28;20452;-68
2024/01/18 08:15:45;;;;;;;21.00;10.40;;;;;;;;;;5024130;28;20079;-69
2024/01/18 08:18:23;;;;;;;23.20;10.03;;;;;;;;;;5020730;28;20025;-68
2024/01/18 08:21:04;;;;;;;20.00;10.47;;;;;;;;;;5010292;28;20548;-67
2024/01/18 08:23:30;;;;;;;20.63;10.50;;;;;;;;;;5017337;28;20405;-69
2024/01/18 08:25:56;;;;;;;22.77;11.30;;;;;;;;;;5014439;28;20033;-68
2024/01/18 08:28:23;;;;;;;21.17;9.33;;;;;;;;;;5021608;28;20083;-71
2024/01/18 08:30:58;;;;;;;21.93;11.17;;;;;;;;;;5018523;28;20030;-70
2024/01/18 08:33:32;;;;;;;18.33;9.80;;;;;;;;;;5017365;28;20017;-67
2024/01/18 08:36:04;;;;;;;20.60;10.20;;;;;;;;;;5008948;28;20037;-70
2024/01/18 08:38:31;;;;;;;18.85;10.32;;;;;;;;;;5018902;28;20064;-70
2024/01/18 08:41:06;;;;;;;22.10;9.63;;;;;;;;;;5014322;28;20048;-70
2024/01/18 08:43:32;;;;;;;18.50;10.53;;;;;;;;;;5014517;28;20366;-72
2024/01/18 08:46:01;;;;;;;18.27;9.67;;;;;;;;;;5018131;28;20040;-68
2024/01/18 08:48:30;;;;;;;20.17;10.57;;;;;;;;;;5012015;28;20029;-70
2024/01/18 08:50:59;;;;;;;23.73;12.27;;;;;;;;;;5013302;28;20120;-69
2024/01/18 08:53:25;;;;;;;26.57;10.90;;;;;;;;;;5016571;28;20477;-71
2024/01/18 08:55:54;;;;;;;20.63;10.03;;;;;;;;;;5023081;28;20075;-72
2024/01/18 08:58:20;;;;;;;22.93;10.97;;;;;;;;;;5025680;28;20033;-71
2024/01/18 09:00:46;;;;;;;31.87;10.90;;;;;;;;;;5028219;28;20033;-69
2024/01/18 09:03:25;;;;;;;21.77;10.70;;;;;;;;;;5023023;28;20159;-69
2024/01/18 09:05:58;;;;;;;19.70;10.87;;;;;;;;;;5020625;28;20045;-69
2024/01/18 09:08:27;;;;;;;28.13;11.57;;;;;;;;;;5030361;28;20033;-70
2024/01/18 09:10:53;;;;;;;20.80;11.37;;;;;;;;;;5016776;28;20025;-69
2024/01/18 09:13:20;;;;;;;25.53;10.30;;;;;;;;;;5006168;28;21247;-71
2024/01/18 09:15:50;;;;;;;18.97;10.53;;;;;;;;;;5011934;28;20075;-68
2024/01/18 09:18:16;;;;;;;38.83;10.23;;;;;;;;;;5027265;28;20041;-68
2024/01/18 09:20:45;;;;;;;16.83;9.47;;;;;;;;;;5018261;28;20044;-69
2024/01/18 09:23:14;;;;;;;16.83;10.30;;;;;;;;;;5016632;28;20427;-70
2024/01/18 09:25:43;;;;;;;20.80;9.73;;;;;;;;;;5008410;28;20034;-70
2024/01/18 09:28:28;;;;;;;22.30;9.60;;;;;;;;;;5013493;28;20033;-71
2024/01/18 09:30:57;;;;;;;19.03;8.37;;;;;;;;;;5008865;28;20132;-70
2024/01/18 09:33:26;;;;;;;25.80;10.20;;;;;;;;;;5021721;28;20452;-71
2024/01/18 09:35:56;;;;;;;15.03;8.10;;;;;;;;;;5019249;28;20124;-71
2024/01/18 09:38:26;;;;;;;17.30;8.87;;;;;;;;;;5015699;28;20737;-67
2024/01/18 09:41:01;;;;;;;19.70;10.07;;;;;;;;;;5021017;28;20104;-70
2024/01/18 09:43:31;;;;;;;15.73;8.03;;;;;;;;;;5022147;28;20029;-71
2024/01/18 09:46:04;;;;;;;15.57;9.37;;;;;;;;;;5016958;28;20041;-70
2024/01/18 09:48:30;;;;;;;17.73;8.70;;;;;;;;;;5018630;28;20033;-70
2024/01/18 09:51:00;;;;;;;17.23;10.37;;;;;;;;;;5014907;28;20037;-69
2024/01/18 09:53:32;;;;;;;22.50;10.30;;;;;;;;;;5015990;28;20063;-70
2024/01/18 09:56:07;;;;;;;15.52;8.88;;;;;;;;;;5011369;28;20052;-71
2024/01/18 09:58:36;;;;;;;15.73;9.97;;;;;;;;;;5023027;28;20052;-69
2024/01/18 10:01:21;;;;;;;17.87;10.17;;;;;;;;;;5017573;28;20160;-69
2024/01/18 10:03:49;;;;;;;16.80;10.53;;;;;;;;;;5015286;28;20131;-72
2024/01/18 10:06:22;;;;;;;23.20;11.67;;;;;;;;;;5003969;28;21014;-70
2024/01/18 10:08:54;;;;;;;18.87;10.03;;;;;;;;;;5018549;28;20393;-69
2024/01/18 10:11:20;;;;;;;;;;;;;;;;;;5019763;28;20509;-69
2024/01/18 10:13:59;;;;;;;25.13;11.70;;;;;;;;;;5016819;28;19924;-70
2024/01/18 10:17:01;;;;;;;18.40;10.50;;;;;;;;;;5017612;28;20025;-69
2024/01/18 10:19:30;;;;;;;14.77;9.03;;;;;;;;;;5003142;28;20049;-72
2024/01/18 10:22:00;;;;;;;13.73;8.40;;;;;;;;;;5014257;28;20095;-69
2024/01/18 10:24:31;;;;;;;16.43;9.27;;;;;;;;;;5018080;28;20339;-70
2024/01/18 10:27:04;;;;;;;18.87;9.80;;;;;;;;;;5008600;28;20073;-69
2024/01/18 10:29:37;;;;;;;15.30;8.83;;;;;;;;;;4999070;28;20045;-70
2024/01/18 10:32:08;;;;;;;17.00;9.30;;;;;;;;;;5015243;28;20033;-67
2024/01/18 10:34:35;;;;;;;14.73;8.27;;;;;;;;;;5021135;28;20460;-71
2024/01/18 10:37:05;;;;;;;17.67;8.77;;;;;;;;;;5035371;28;20037;-69
2024/01/18 10:39:45;;;;;;;15.40;9.57;;;;;;;;;;5019287;28;20044;-70
2024/01/18 10:42:14;;;;;;;16.43;7.43;;;;;;;;;;5008742;28;20481;-70
2024/01/18 10:44:42;;;;;;;16.80;7.87;;;;;;;;;;5016326;28;20028;-69
2024/01/18 10:47:14;;;;;;;17.43;9.60;;;;;;;;;;5018971;28;20051;-69
2024/01/18 10:49:43;;;;;;;19.35;9.60;;;;;;;;;;5020144;28;20037;-69
2024/01/18 10:52:17;;;;;;;14.73;8.03;;;;;;;;;;5017538;28;20034;-68
2024/01/18 10:54:47;;;;;;;15.70;8.97;;;;;;;;;;5018430;28;20083;-69
2024/01/18 10:57:17;;;;;;;18.13;8.60;;;;;;;;;;5008636;28;20316;-70
2024/01/18 10:59:52;;;;;;;14.43;8.40;;;;;;;;;;5018905;28;20301;-69
2024/01/18 11:02:19;;;;;;;14.77;8.10;;;;;;;;;;5005843;28;20123;-68
2024/01/18 11:04:49;;;;;;;23.13;12.67;;;;;;;;;;5028133;28;20013;-71
2024/01/18 11:07:21;;;;;;;13.17;8.10;;;;;;;;;;5025027;28;20143;-71
2024/01/18 11:09:55;;;;;;;13.87;7.87;;;;;;;;;;5009939;28;20492;-67
2024/01/18 11:12:22;;;;;;;14.73;7.47;;;;;;;;;;5013599;28;20036;-69
2024/01/18 11:14:48;;;;;;;14.53;8.13;;;;;;;;;;5015724;28;20318;-71
2024/01/18 11:17:18;;;;;;;15.33;7.87;;;;;;;;;;5018754;28;20029;-69
2024/01/18 11:19:49;;;;;;;15.27;8.40;;;;;;;;;;5014058;28;20029;-71
2024/01/18 11:22:26;;;;;;;16.83;8.83;;;;;;;;;;5015096;28;20486;-72
2024/01/18 11:24:55;;;;;;;15.00;8.43;;;;;;;;;;5009023;28;20109;-71
2024/01/18 11:27:24;;;;;;;18.67;8.53;;;;;;;;;;5014227;28;20241;-69
2024/01/18 11:29:54;;;;;;;19.10;8.50;;;;;;;;;;5008901;28;20034;-70
2024/01/18 11:32:21;;;;;;;16.30;9.57;;;;;;;;;;5003784;28;20037;-69
2024/01/18 11:35:07;;;;;;;19.97;9.17;;;;;;;;;;5025519;28;20101;-69
2024/01/18 11:37:34;;;;;;;15.30;8.87;;;;;;;;;;5021152;28;20025;-69
2024/01/18 11:43:55;;;;;;;18.20;8.37;;;;;;;;;;5009374;28;20048;-69
2024/01/18 11:46:45;;;;;;;14.93;7.87;;;;;;;;;;5011905;28;20357;-70
2024/01/18 11:49:12;;;;;;;13.57;7.30;;;;;;;;;;5020907;28;20374;-70
2024/01/18 11:51:40;;;;;;;17.37;7.23;;;;;;;;;;5025991;28;20124;-72
2024/01/18 11:54:10;;;;;;;16.60;6.57;;;;;;;;;;5018484;28;20433;-69
2024/01/18 11:56:40;;;;;;;12.50;6.87;;;;;;;;;;5023361;28;20038;-72
2024/01/18 11:59:08;;;;;;;18.77;8.87;;;;;;;;;;5004956;28;20041;-74
2024/01/18 12:01:35;;;;;;;15.83;8.17;;;;;;;;;;5019371;28;20436;-72
2024/01/18 12:04:10;;;;;;;12.83;7.20;;;;;;;;;;5019667;28;20032;-71
2024/01/18 12:06:40;;;;;;;14.50;6.57;;;;;;;;;;5017586;28;20064;-70
2024/01/18 12:09:12;;;;;;;12.63;6.93;;;;;;;;;;5018576;28;20503;-71
2024/01/18 12:11:50;;;;;;;12.27;7.10;;;;;;;;;;5016662;28;20039;-72
2024/01/18 12:14:22;;;;;;;18.17;8.47;;;;;;;;;;5021670;28;20355;-70
2024/01/18 12:16:48;;;;;;;19.35;6.50;;;;;;;;;;5017931;28;20030;-70
2024/01/18 12:19:35;;;;;;;19.50;6.23;;;;;;;;;;5017880;28;20136;-72
2024/01/18 12:22:05;;;;;;;18.13;8.40;;;;;;;;;;5014258;28;20034;-71
2024/01/18 12:24:32;;;;;;;16.33;6.30;;;;;;;;;;5022370;28;20119;-69
2024/01/18 12:26:59;;;;;;;11.80;6.90;;;;;;;;;;5021843;28;20033;-69
2024/01/18 12:29:26;;;;;;;16.30;6.87;;;;;;;;;;5017682;28;20045;-71
2024/01/18 12:32:00;;;;;;;15.80;6.43;;;;;;;;;;5024330;28;20095;-70
2024/01/18 12:34:29;;;;;;;19.63;7.10;;;;;;;;;;5008545;28;20037;-69
2024/01/18 12:36:56;;;;;;;14.43;6.63;;;;;;;;;;5018180;28;20033;-69
2024/01/18 12:39:25;;;;;;;12.97;7.03;;;;;;;;;;5014653;28;20111;-70
2024/01/18 12:41:55;;;;;;;14.90;6.77;;;;;;;;;;5016094;28;20025;-70
2024/01/18 12:44:24;;;;;;;15.03;7.93;;;;;;;;;;5009278;28;20124;-69
2024/01/18 12:46:52;;;;;;;15.03;6.57;;;;;;;;;;5024780;28;20515;-71
2024/01/18 12:49:26;;;;;;;14.67;7.10;;;;;;;;;;5016091;28;20260;-71
2024/01/18 12:51:58;;;;;;;9.67;5.57;;;;;;;;;;5012831;28;20330;-71
2024/01/18 12:54:27;;;;;;;22.38;6.40;;;;;;;;;;5009644;28;20055;-70
2024/01/18 12:56:58;;;;;;;11.07;5.40;;;;;;;;;;5000172;28;20056;-71
2024/01/18 12:59:26;;;;;;;17.50;6.67;;;;;;;;;;5015564;28;20534;-69
2024/01/18 13:01:53;;;;;;;16.30;6.90;;;;;;;;;;5017881;28;20047;-70
2024/01/18 13:04:48;;;;;;;17.53;6.57;;;;;;;;;;5009946;28;20021;-72
2024/01/18 13:07:24;;;;;;;12.47;6.37;;;;;;;;;;5016863;28;20541;-70
2024/01/18 13:09:50;;;;;;;7.43;5.17;;;;;;;;;;5020716;28;20033;-68
2024/01/18 13:12:19;;;;;;;16.03;5.73;;;;;;;;;;5018227;28;20129;-69
2024/01/18 13:14:53;;;;;;;10.60;5.90;;;;;;;;;;5020867;28;20117;-69
2024/01/18 13:17:39;;;;;;;14.07;6.93;;;;;;;;;;5017573;28;20040;-70
2024/01/18 13:20:10;;;;;;;14.67;6.90;;;;;;;;;;5013284;28;20033;-69
2024/01/18 13:22:40;;;;;;;15.10;7.37;;;;;;;;;;5022787;28;20481;-69
2024/01/18 13:25:06;;;;;;;22.10;6.77;;;;;;;;;;5022754;28;20670;-70
2024/01/18 13:27:36;;;;;;;11.03;5.87;;;;;;;;;;5024604;28;20144;-71
2024/01/18 13:30:17;;;;;;;10.57;5.97;;;;;;;;;;5021253;28;20120;-70
2024/01/18 13:32:50;;;;;;;11.33;6.50;;;;;;;;;;5025472;28;20091;-70
2024/01/18 13:35:18;;;;;;;12.17;6.27;;;;;;;;;;5021577;28;20037;-69
2024/01/18 13:37:44;;;;;;;19.83;7.50;;;;;;;;;;5028796;28;20029;-72
2024/01/18 13:40:11;;;;;;;13.77;6.90;;;;;;;;;;5008355;28;20037;-70
2024/01/18 13:42:39;;;;;;;15.73;6.60;;;;;;;;;;5026965;28;20021;-71
2024/01/18 13:45:06;;;;;;;20.70;7.23;;;;;;;;;;5024334;28;20069;-70
2024/01/18 13:47:39;;;;;;;30.10;18.07;;;;;;;;;;5009583;28;20124;-72
2024/01/18 13:50:09;;;;;;;14.53;7.20;;;;;;;;;;5012324;28;20114;-70
2024/01/18 13:52:37;;;;;;;16.50;7.47;;;;;;;;;;5010941;28;20044;-70
2024/01/18 13:55:06;;;;;;;17.30;7.43;;;;;;;;;;5018686;28;20079;-70
2024/01/18 13:57:38;;;;;;;13.40;6.67;;;;;;;;;;5018547;28;20037;-70
2024/01/18 14:00:06;;;;;;;16.90;8.65;;;;;;;;;;5020220;28;20038;-71
2024/01/18 14:02:32;;;;;;;20.37;8.33;;;;;;;;;;5022684;28;20041;-70
2024/01/18 14:05:02;;;;;;;35.37;16.27;;;;;;;;;;5025442;28;20052;-69
2024/01/18 14:07:38;;;;;;;22.87;9.60;;;;;;;;;;5010009;28;20556;-72
2024/01/18 14:10:04;;;;;;;17.70;9.33;;;;;;;;;;5021438;28;20040;-69
2024/01/18 14:12:31;;;;;;;20.47;9.13;;;;;;;;;;5024757;28;20072;-70
2024/01/18 14:15:03;;;;;;;22.30;9.93;;;;;;;;;;5024877;28;20037;-72
2024/01/18 14:17:31;;;;;;;17.43;8.03;;;;;;;;;;5003629;28;20132;-70
2024/01/18 14:20:00;;;;;;;19.40;10.13;;;;;;;;;;5016113;28;20060;-72
2024/01/18 14:22:26;;;;;;;17.60;8.63;;;;;;;;;;5013804;28;20084;-69
2024/01/18 14:25:13;;;;;;;12.57;8.07;;;;;;;;;;5016107;28;20077;-69
2024/01/18 14:28:02;;;;;;;22.03;8.67;;;;;;;;;;5016704;28;20083;-69
2024/01/18 14:30:36;;;;;;;16.30;8.20;;;;;;;;;;5021983;28;20116;-72